CDT,Max TemperatureF,Mean TemperatureF,Min TemperatureF,Max Dew PointF,MeanDew PointF,Min DewpointF,Max Humidity, Mean Humidity, Min Humidity, Max Sea Level PressureIn, Mean Sea Level PressureIn, Min Sea Level PressureIn, Max VisibilityMiles, Mean VisibilityMiles, Min VisibilityMiles, Max Wind SpeedMPH, Mean Wind SpeedMPH, Max Gust SpeedMPH,PrecipitationIn, CloudCover, Events, WindDirDegrees
2013-4-1,34,24,15,11,8,6,71,52,31,30.30,30.26,30.17,10,10,10,16,10,22,0.00,0,,301
2013-4-2,37,26,16,14,10,8,74,54,31,30.39,30.34,30.28,10,10,7,10,6,20,0.00,0,,330
2013-4-3,42,26,12,31,18,7,81,62,46,30.40,30.24,29.95,10,10,8,20,7,29,0.00,1,,178
2013-4-4,44,37,28,30,22,14,79,56,30,30.24,30.11,29.97,10,10,8,16,11,26,0.00,0,,328
2013-4-5,39,28,18,25,17,13,81,61,38,30.29,30.17,29.94,10,10,5,10,6,22,0.00,3,Snow,129
2013-4-6,37,35,33,32,30,26,86,79,68,29.90,29.70,29.59,10,7,1,13,7,20,0.31,8,Rain-Snow,36
2013-4-7,43,38,34,32,28,26,87,70,57,29.95,29.85,29.75,10,10,4,12,7,17,0.12,7,Rain,341
2013-4-8,43,39,35,36,32,28,93,81,70,30.15,29.89,29.75,10,7,2,14,7,,0.05,8,Rain,24
2013-4-9,39,30,24,23,17,13,69,54,39,30.25,30.20,30.10,10,10,10,17,13,24,0.00,2,,10
2013-4-10,43,37,32,17,13,10,50,39,28,30.28,30.16,30.03,10,10,10,21,11,26,0.00,7,,53
2013-4-11,35,32,28,25,23,12,86,74,40,30.03,29.85,29.79,10,4,0,18,14,33,0.08,8,Fog-Snow,63
2013-4-12,34,30,28,27,24,19,93,79,56,29.88,29.80,29.72,10,3,0,16,8,21,0.09,8,Fog-Snow,19
2013-4-13,37,30,21,25,19,14,86,72,43,30.00,29.87,29.81,10,6,1,8,5,,0.00,7,Snow,351
2013-4-14,37,27,18,30,25,13,87,77,46,30.00,29.67,29.47,10,4,0,16,8,33,0.11,7,Fog-Rain-Snow,74
2013-4-15,37,34,32,31,29,27,89,79,68,29.95,29.57,29.40,10,6,2,18,12,24,0.00,8,Rain-Snow,201
2013-4-16,41,36,32,28,25,22,79,65,50,30.37,30.17,29.91,10,10,10,13,9,21,0.00,8,,295
2013-4-17,39,34,30,29,26,23,87,74,55,30.39,30.19,30.04,10,6,1,13,6,21,0.02,8,Snow,54
2013-4-18,33,32,30,29,27,26,89,84,75,30.06,29.81,29.62,8,2,0,23,11,31,0.08,8,Fog-Snow,5
2013-4-19,37,30,24,27,20,4,88,69,35,30.04,29.70,29.57,10,4,0,28,19,34,0.04,7,Fog-Rain-Snow,349
2013-4-20,39,23,9,12,8,1,84,49,23,30.32,30.24,30.06,10,10,10,13,4,18,0.00,0,,208
2013-4-21,41,34,28,36,30,10,93,77,43,30.31,30.10,29.97,10,7,1,21,8,28,0.18,8,Rain,185
2013-4-22,36,32,27,28,23,19,81,66,52,30.32,30.24,30.17,10,8,2,13,8,21,0.00,6,Snow,5
2013-4-23,41,32,25,20,16,10,67,50,30,30.24,30.16,30.07,10,10,10,14,10,20,0.00,1,,312
2013-4-24,41,31,21,30,25,15,87,71,53,30.07,29.95,29.88,10,7,0,14,6,18,0.04,5,Fog-Snow,252
2013-4-25,44,36,28,26,24,21,86,64,42,30.19,30.11,30.02,10,10,10,14,7,,0.00,3,Rain,230
2013-4-26,66,52,39,34,30,25,65,47,23,30.16,30.05,29.96,10,10,8,10,4,,0.00,0,,235
2013-4-27,73,52,32,35,31,26,82,46,21,30.15,30.01,29.83,10,10,9,17,5,22,0.00,0,,183
2013-4-28,70,62,51,47,43,34,72,57,38,29.82,29.75,29.70,10,10,9,14,11,22,0.01,2,Rain,222
2013-4-29,71,50,30,36,27,18,85,43,17,29.88,29.74,29.55,10,10,10,10,4,,0.00,0,,114
2013-4-30,68,58,46,54,37,18,83,52,15,29.99,29.61,29.33,10,10,6,26,12,37,0.02,2,,250